sensor_id;sensor_type;location;lat;lon;timestamp;pressure;altitude;pressure_sealevel;temperature;humidity
12203;BME280;6164;42.178;24.622;2023-04-09T00:00:19;100034.91;;;9.28;100.00
12203;BME280;6164;42.178;24.622;2023-04-09T00:02:45;100033.69;;;9.22;100.00
12203;BME280;6164;42.178;24.622;2023-04-09T00:05:12;100040.94;;;9.20;100.00
12203;BME280;6164;42.178;24.622;2023-04-09T00:07:39;100045.66;;;9.17;100.00
12203;BME280;6164;42.178;24.622;2023-04-09T00:10:06;100046.50;;;9.17;100.00
12203;BME280;6164;42.178;24.622;2023-04-09T00:12:32;100043.19;;;9.15;100.00
12203;BME280;6164;42.178;24.622;2023-04-09T00:14:59;100046.38;;;9.09;100.00
12203;BME280;6164;42.178;24.622;2023-04-09T00:17:27;100042.25;;;9.07;100.00
12203;BME280;6164;42.178;24.622;2023-04-09T00:19:53;100053.78;;;9.06;100.00
12203;BME280;6164;42.178;24.622;2023-04-09T00:22:20;100041.88;;;9.02;100.00
12203;BME280;6164;42.178;24.622;2023-04-09T00:24:46;100052.84;;;8.97;100.00
12203;BME280;6164;42.178;24.622;2023-04-09T00:27:13;100053.56;;;8.90;100.00
12203;BME280;6164;42.178;24.622;2023-04-09T00:29:39;100058.59;;;8.83;100.00
12203;BME280;6164;42.178;24.622;2023-04-09T00:32:06;100052.91;;;8.78;100.00
12203;BME280;6164;42.178;24.622;2023-04-09T00:34:34;100060.72;;;8.70;100.00
12203;BME280;6164;42.178;24.622;2023-04-09T00:37:00;100065.59;;;8.65;100.00
12203;BME280;6164;42.178;24.622;2023-04-09T00:39:27;100058.69;;;8.64;100.00
12203;BME280;6164;42.178;24.622;2023-04-09T00:41:56;100058.81;;;8.63;100.00
12203;BME280;6164;42.178;24.622;2023-04-09T00:44:23;100062.16;;;8.55;100.00
12203;BME280;6164;42.178;24.622;2023-04-09T00:46:50;100064.78;;;8.55;100.00
12203;BME280;6164;42.178;24.622;2023-04-09T00:49:17;100073.81;;;8.53;100.00
12203;BME280;6164;42.178;24.622;2023-04-09T00:51:45;100076.34;;;8.45;100.00
12203;BME280;6164;42.178;24.622;2023-04-09T00:54:11;100070.25;;;8.44;100.00
12203;BME280;6164;42.178;24.622;2023-04-09T00:56:38;100073.16;;;8.41;100.00
12203;BME280;6164;42.178;24.622;2023-04-09T00:59:05;100068.84;;;8.40;100.00
12203;BME280;6164;42.178;24.622;2023-04-09T01:01:32;100070.28;;;8.35;100.00
12203;BME280;6164;42.178;24.622;2023-04-09T01:03:59;100075.38;;;8.36;100.00
12203;BME280;6164;42.178;24.622;2023-04-09T01:06:26;100077.19;;;8.36;100.00
12203;BME280;6164;42.178;24.622;2023-04-09T01:08:58;100079.13;;;8.34;100.00
12203;BME280;6164;42.178;24.622;2023-04-09T01:11:30;100074.00;;;8.32;100.00
12203;BME280;6164;42.178;24.622;2023-04-09T01:13:59;100075.97;;;8.30;100.00
12203;BME280;6164;42.178;24.622;2023-04-09T01:16:29;100070.00;;;8.28;100.00
12203;BME280;6164;42.178;24.622;2023-04-09T01:18:58;100074.56;;;8.26;100.00
12203;BME280;6164;42.178;24.622;2023-04-09T01:21:28;100069.47;;;8.25;100.00
12203;BME280;6164;42.178;24.622;2023-04-09T01:23:58;100073.88;;;8.24;100.00
12203;BME280;6164;42.178;24.622;2023-04-09T01:26:30;100072.50;;;8.20;100.00
12203;BME280;6164;42.178;24.622;2023-04-09T01:29:02;100069.31;;;8.17;100.00
12203;BME280;6164;42.178;24.622;2023-04-09T01:31:31;100077.50;;;8.14;100.00
12203;BME280;6164;42.178;24.622;2023-04-09T01:33:59;100082.06;;;8.12;100.00
12203;BME280;6164;42.178;24.622;2023-04-09T01:36:29;100074.16;;;8.12;100.00
12203;BME280;6164;42.178;24.622;2023-04-09T01:38:56;100076.94;;;8.10;100.00
12203;BME280;6164;42.178;24.622;2023-04-09T01:41:23;100079.44;;;8.12;100.00
12203;BME280;6164;42.178;24.622;2023-04-09T01:43:51;100080.38;;;8.11;100.00
12203;BME280;6164;42.178;24.622;2023-04-09T01:46:20;100079.56;;;8.10;100.00
12203;BME280;6164;42.178;24.622;2023-04-09T01:48:47;100089.25;;;8.10;100.00
12203;BME280;6164;42.178;24.622;2023-04-09T01:51:13;100096.72;;;8.14;100.00
12203;BME280;6164;42.178;24.622;2023-04-09T01:53:41;100093.94;;;8.16;100.00
12203;BME280;6164;42.178;24.622;2023-04-09T01:56:08;100090.34;;;8.17;100.00
12203;BME280;6164;42.178;24.622;2023-04-09T01:58:35;100089.38;;;8.18;100.00
12203;BME280;6164;42.178;24.622;2023-04-09T02:01:04;100094.34;;;8.21;100.00
12203;BME280;6164;42.178;24.622;2023-04-09T02:03:34;100094.78;;;8.16;100.00
12203;BME280;6164;42.178;24.622;2023-04-09T02:06:04;100089.50;;;8.16;100.00
12203;BME280;6164;42.178;24.622;2023-04-09T02:08:33;100101.03;;;8.15;100.00
12203;BME280;6164;42.178;24.622;2023-04-09T02:10:59;100094.22;;;8.13;100.00
12203;BME280;6164;42.178;24.622;2023-04-09T02:13:28;100096.28;;;8.09;100.00
12203;BME280;6164;42.178;24.622;2023-04-09T02:15:56;100105.03;;;8.10;100.00
12203;BME280;6164;42.178;24.622;2023-04-09T02:18:24;100095.19;;;8.12;100.00
12203;BME280;6164;42.178;24.622;2023-04-09T02:20:52;100108.34;;;8.12;100.00
12203;BME280;6164;42.178;24.622;2023-04-09T02:23:19;100111.69;;;8.14;100.00
12203;BME280;6164;42.178;24.622;2023-04-09T02:25:46;100102.09;;;8.13;100.00
12203;BME280;6164;42.178;24.622;2023-04-09T02:28:12;100109.19;;;8.12;100.00
12203;BME280;6164;42.178;24.622;2023-04-09T02:30:39;100102.94;;;8.13;100.00
12203;BME280;6164;42.178;24.622;2023-04-09T02:33:06;100100.31;;;8.13;100.00
12203;BME280;6164;42.178;24.622;2023-04-09T02:35:32;100095.19;;;8.12;100.00
12203;BME280;6164;42.178;24.622;2023-04-09T02:38:00;100097.00;;;8.11;100.00
12203;BME280;6164;42.178;24.622;2023-04-09T02:40:27;100097.53;;;8.15;100.00
12203;BME280;6164;42.178;24.622;2023-04-09T02:42:53;100095.75;;;8.15;100.00
12203;BME280;6164;42.178;24.622;2023-04-09T02:45:20;100089.50;;;8.16;100.00
12203;BME280;6164;42.178;24.622;2023-04-09T02:47:46;100089.50;;;8.16;100.00
12203;BME280;6164;42.178;24.622;2023-04-09T02:50:13;100086.88;;;8.16;100.00
12203;BME280;6164;42.178;24.622;2023-04-09T02:52:39;100091.31;;;8.16;100.00
12203;BME280;6164;42.178;24.622;2023-04-09T02:55:07;100096.41;;;8.17;100.00
12203;BME280;6164;42.178;24.622;2023-04-09T02:57:34;100097.41;;;8.16;100.00
12203;BME280;6164;42.178;24.622;2023-04-09T03:00:01;100096.41;;;8.17;100.00
12203;BME280;6164;42.178;24.622;2023-04-09T03:02:28;100100.03;;;8.16;100.00
12203;BME280;6164;42.178;24.622;2023-04-09T03:04:54;100100.72;;;8.18;100.00
12203;BME280;6164;42.178;24.622;2023-04-09T03:07:21;100098.94;;;8.19;100.00
12203;BME280;6164;42.178;24.622;2023-04-09T03:09:47;100090.75;;;8.22;100.00
12203;BME280;6164;42.178;24.622;2023-04-09T03:12:15;100102.22;;;8.21;100.00
12203;BME280;6164;42.178;24.622;2023-04-09T03:14:42;100089.22;;;8.19;100.00
12203;BME280;6164;42.178;24.622;2023-04-09T03:17:08;100090.34;;;8.17;100.00
12203;BME280;6164;42.178;24.622;2023-04-09T03:19:35;100092.84;;;8.18;100.00
12203;BME280;6164;42.178;24.622;2023-04-09T03:22:01;100099.06;;;8.17;100.00
12203;BME280;6164;42.178;24.622;2023-04-09T03:24:28;100092.16;;;8.16;100.00
12203;BME280;6164;42.178;24.622;2023-04-09T03:26:55;100090.50;;;8.15;100.00
12203;BME280;6164;42.178;24.622;2023-04-09T03:29:23;100100.31;;;8.13;100.00
12203;BME280;6164;42.178;24.622;2023-04-09T03:31:50;100096.16;;;8.11;100.00
12203;BME280;6164;42.178;24.622;2023-04-09T03:34:16;100107.78;;;8.08;100.00
12203;BME280;6164;42.178;24.622;2023-04-09T03:36:43;100105.44;;;8.05;100.00
12203;BME280;6164;42.178;24.622;2023-04-09T03:39:09;100105.75;;;8.02;100.00
12203;BME280;6164;42.178;24.622;2023-04-09T03:41:36;100109.75;;;7.96;100.00
12203;BME280;6164;42.178;24.622;2023-04-09T03:44:02;100104.34;;;7.98;100.00
12203;BME280;6164;42.178;24.622;2023-04-09T03:46:30;100114.16;;;7.96;100.00
12203;BME280;6164;42.178;24.622;2023-04-09T03:48:56;100122.34;;;7.93;100.00
12203;BME280;6164;42.178;24.622;2023-04-09T03:51:23;100117.78;;;7.95;100.00
12203;BME280;6164;42.178;24.622;2023-04-09T03:53:49;100118.47;;;7.97;100.00
12203;BME280;6164;42.178;24.622;2023-04-09T03:56:16;100113.78;;;8.00;100.00
12203;BME280;6164;42.178;24.622;2023-04-09T03:58:42;100119.13;;;7.99;100.00
12203;BME280;6164;42.178;24.622;2023-04-09T04:01:09;100112.78;;;8.01;100.00
12203;BME280;6164;42.178;24.622;2023-04-09T04:03:37;100123.16;;;8.03;100.00
12203;BME280;6164;42.178;24.622;2023-04-09T04:06:03;100126.34;;;8.07;100.00
12203;BME280;6164;42.178;24.622;2023-04-09T04:08:30;100126.34;;;8.07;100.00
12203;BME280;6164;42.178;24.622;2023-04-09T04:11:01;100125.91;;;8.11;100.00
12203;BME280;6164;42.178;24.622;2023-04-09T04:13:28;100129.25;;;8.13;100.00
12203;BME280;6164;42.178;24.622;2023-04-09T04:15:54;100129.09;;;8.15;100.00
12203;BME280;6164;42.178;24.622;2023-04-09T04:18:21;100125.78;;;8.13;100.00
12203;BME280;6164;42.178;24.622;2023-04-09T04:20:49;100134.50;;;8.13;100.00
12203;BME280;6164;42.178;24.622;2023-04-09T04:23:15;100132.56;;;8.15;100.00
12203;BME280;6164;42.178;24.622;2023-04-09T04:25:42;100127.31;;;8.15;100.00
12203;BME280;6164;42.178;24.622;2023-04-09T04:28:08;100132.28;;;8.18;100.00
12203;BME280;6164;42.178;24.622;2023-04-09T04:30:35;100141.13;;;8.17;100.00
12203;BME280;6164;42.178;24.622;2023-04-09T04:33:01;100145.44;;;8.18;100.00
12203;BME280;6164;42.178;24.622;2023-04-09T04:35:28;100139.91;;;8.21;100.00
12203;BME280;6164;42.178;24.622;2023-04-09T04:37:56;100139.06;;;8.21;100.00
12203;BME280;6164;42.178;24.622;2023-04-09T04:40:22;100142.53;;;8.21;100.00
12203;BME280;6164;42.178;24.622;2023-04-09T04:42:49;100134.78;;;8.20;100.00
12203;BME280;6164;42.178;24.622;2023-04-09T04:45:15;100136.28;;;8.22;100.00
12203;BME280;6164;42.178;24.622;2023-04-09T04:47:42;100140.34;;;8.26;100.00
12203;BME280;6164;42.178;24.622;2023-04-09T04:50:08;100137.56;;;8.28;100.00
12203;BME280;6164;42.178;24.622;2023-04-09T04:52:35;100139.34;;;8.27;100.00
12203;BME280;6164;42.178;24.622;2023-04-09T04:55:04;100144.34;;;8.30;100.00
12203;BME280;6164;42.178;24.622;2023-04-09T04:57:31;100154.59;;;8.33;100.00
12203;BME280;6164;42.178;24.622;2023-04-09T04:59:57;100151.53;;;8.38;100.00
12203;BME280;6164;42.178;24.622;2023-04-09T05:02:24;100141.84;;;8.38;100.00
12203;BME280;6164;42.178;24.622;2023-04-09T05:04:50;100148.47;;;8.42;100.00
12203;BME280;6164;42.178;24.622;2023-04-09T05:07:17;100150.81;;;8.45;100.00
12203;BME280;6164;42.178;24.622;2023-04-09T05:09:44;100149.59;;;8.49;100.00
12203;BME280;6164;42.178;24.622;2023-04-09T05:12:12;100150.28;;;8.42;100.00
12203;BME280;6164;42.178;24.622;2023-04-09T05:14:42;100143.75;;;8.46;100.00
12203;BME280;6164;42.178;24.622;2023-04-09T05:17:08;100144.31;;;8.49;100.00
12203;BME280;6164;42.178;24.622;2023-04-09T05:19:35;100149.16;;;8.54;100.00
12203;BME280;6164;42.178;24.622;2023-04-09T05:22:01;100155.81;;;8.58;100.00
12203;BME280;6164;42.178;24.622;2023-04-09T05:24:27;100149.97;;;8.64;100.00
12203;BME280;6164;42.178;24.622;2023-04-09T05:26:54;100158.41;;;8.67;100.00
12203;BME280;6164;42.178;24.622;2023-04-09T05:29:23;100145.09;;;8.69;100.00
12203;BME280;6164;42.178;24.622;2023-04-09T05:31:49;100147.88;;;8.67;100.00
12203;BME280;6164;42.178;24.622;2023-04-09T05:34:15;100148.28;;;8.72;100.00
12203;BME280;6164;42.178;24.622;2023-04-09T05:36:42;100143.56;;;8.76;100.00
12203;BME280;6164;42.178;24.622;2023-04-09T05:39:08;100143.00;;;8.72;100.00
12203;BME280;6164;42.178;24.622;2023-04-09T05:41:35;100147.03;;;8.76;100.00
12203;BME280;6164;42.178;24.622;2023-04-09T05:44:02;100151.47;;;8.76;100.00
12203;BME280;6164;42.178;24.622;2023-04-09T05:46:31;100142.88;;;8.74;100.00
12203;BME280;6164;42.178;24.622;2023-04-09T05:48:57;100150.63;;;8.75;100.00
12203;BME280;6164;42.178;24.622;2023-04-09T05:51:24;100144.41;;;8.76;100.00
12203;BME280;6164;42.178;24.622;2023-04-09T05:53:50;100145.59;;;8.82;100.00
12203;BME280;6164;42.178;24.622;2023-04-09T05:56:17;100144.22;;;8.87;100.00
12203;BME280;6164;42.178;24.622;2023-04-09T05:58:43;100150.69;;;8.93;100.00
12203;BME280;6164;42.178;24.622;2023-04-09T06:01:10;100141.09;;;9.01;100.00
12203;BME280;6164;42.178;24.622;2023-04-09T06:03:37;100144.13;;;9.06;100.00
12203;BME280;6164;42.178;24.622;2023-04-09T06:06:04;100153.00;;;9.05;100.00
12203;BME280;6164;42.178;24.622;2023-04-09T06:08:31;100157.25;;;9.16;100.00
12203;BME280;6164;42.178;24.622;2023-04-09T06:10:57;100159.22;;;9.14;100.00
12203;BME280;6164;42.178;24.622;2023-04-09T06:13:24;100155.59;;;9.15;100.00
12203;BME280;6164;42.178;24.622;2023-04-09T06:15:51;100158.09;;;9.16;100.00
12203;BME280;6164;42.178;24.622;2023-04-09T06:18:17;100160.41;;;9.19;100.00
12203;BME280;6164;42.178;24.622;2023-04-09T06:20:45;100166.09;;;9.24;100.00
12203;BME280;6164;42.178;24.622;2023-04-09T06:23:11;100165.78;;;9.27;100.00
12203;BME280;6164;42.178;24.622;2023-04-09T06:25:38;100158.28;;;9.32;100.00
12203;BME280;6164;42.178;24.622;2023-04-09T06:28:04;100154.25;;;9.38;100.00
12203;BME280;6164;42.178;24.622;2023-04-09T06:30:31;100157.94;;;9.45;100.00
12203;BME280;6164;42.178;24.622;2023-04-09T06:32:59;100161.78;;;9.51;100.00
12203;BME280;6164;42.178;24.622;2023-04-09T06:35:26;100157.59;;;9.58;100.00
12203;BME280;6164;42.178;24.622;2023-04-09T06:37:54;100160.69;;;9.71;100.00
12203;BME280;6164;42.178;24.622;2023-04-09T06:40:20;100153.16;;;9.76;100.00
12203;BME280;6164;42.178;24.622;2023-04-09T06:42:47;100155.88;;;9.84;100.00
12203;BME280;6164;42.178;24.622;2023-04-09T06:45:14;100155.16;;;9.91;100.00
12203;BME280;6164;42.178;24.622;2023-04-09T06:47:40;100154.75;;;10.04;100.00
12203;BME280;6164;42.178;24.622;2023-04-09T06:50:07;100153.91;;;10.13;100.00
12203;BME280;6164;42.178;24.622;2023-04-09T06:52:33;100159.19;;;10.13;100.00
12203;BME280;6164;42.178;24.622;2023-04-09T06:55:01;100153.59;;;10.16;100.00
12203;BME280;6164;42.178;24.622;2023-04-09T06:57:28;100157.28;;;10.23;100.00
12203;BME280;6164;42.178;24.622;2023-04-09T06:59:56;100159.69;;;10.34;100.00
12203;BME280;6164;42.178;24.622;2023-04-09T07:02:22;100163.13;;;10.52;100.00
12203;BME280;6164;42.178;24.622;2023-04-09T07:04:49;100162.16;;;10.61;100.00
12203;BME280;6164;42.178;24.622;2023-04-09T07:07:16;100166.22;;;10.73;100.00
12203;BME280;6164;42.178;24.622;2023-04-09T07:09:43;100168.91;;;10.81;100.00
12203;BME280;6164;42.178;24.622;2023-04-09T07:12:11;100164.16;;;10.85;100.00
12203;BME280;6164;42.178;24.622;2023-04-09T07:14:37;100168.59;;;10.84;100.00
12203;BME280;6164;42.178;24.622;2023-04-09T07:17:04;100163.31;;;10.84;100.00
12203;BME280;6164;42.178;24.622;2023-04-09T07:19:30;100159.28;;;10.98;100.00
12203;BME280;6164;42.178;24.622;2023-04-09T07:21:57;100159.31;;;11.06;100.00
12203;BME280;6164;42.178;24.622;2023-04-09T07:24:23;100164.34;;;11.17;100.00
12203;BME280;6164;42.178;24.622;2023-04-09T07:26:50;100156.25;;;11.18;100.00
12203;BME280;6164;42.178;24.622;2023-04-09T07:29:18;100157.09;;;11.27;100.00
12203;BME280;6164;42.178;24.622;2023-04-09T07:31:46;100155.47;;;11.34;100.00
12203;BME280;6164;42.178;24.622;2023-04-09T07:34:12;100157.97;;;11.43;100.00
12203;BME280;6164;42.178;24.622;2023-04-09T07:36:39;100152.75;;;11.59;100.00
12203;BME280;6164;42.178;24.622;2023-04-09T07:39:06;100153.16;;;11.64;100.00
12203;BME280;6164;42.178;24.622;2023-04-09T07:41:33;100150.69;;;11.71;100.00
12203;BME280;6164;42.178;24.622;2023-04-09T07:43:59;100153.34;;;11.79;100.00
12203;BME280;6164;42.178;24.622;2023-04-09T07:46:28;100152.00;;;11.91;100.00
12203;BME280;6164;42.178;24.622;2023-04-09T07:48:55;100155.84;;;12.05;100.00
12203;BME280;6164;42.178;24.622;2023-04-09T07:51:21;100155.22;;;12.11;100.00
12203;BME280;6164;42.178;24.622;2023-04-09T07:53:48;100154.88;;;12.22;100.00
12203;BME280;6164;42.178;24.622;2023-04-09T07:56:14;100150.41;;;12.30;100.00
12203;BME280;6164;42.178;24.622;2023-04-09T07:58:41;100159.66;;;12.42;98.54
12203;BME280;6164;42.178;24.622;2023-04-09T08:01:07;100161.31;;;12.59;97.39
12203;BME280;6164;42.178;24.622;2023-04-09T08:03:35;100167.06;;;12.79;97.20
12203;BME280;6164;42.178;24.622;2023-04-09T08:06:02;100167.22;;;12.85;94.74
12203;BME280;6164;42.178;24.622;2023-04-09T08:08:28;100166.06;;;12.96;94.25
12203;BME280;6164;42.178;24.622;2023-04-09T08:10:55;100167.69;;;13.05;94.44
12203;BME280;6164;42.178;24.622;2023-04-09T08:13:21;100169.00;;;13.17;92.81
12203;BME280;6164;42.178;24.622;2023-04-09T08:15:48;100165.47;;;13.24;89.94
12203;BME280;6164;42.178;24.622;2023-04-09T08:18:14;100166.97;;;13.27;88.03
12203;BME280;6164;42.178;24.622;2023-04-09T08:20:42;100163.09;;;13.46;86.66
12203;BME280;6164;42.178;24.622;2023-04-09T08:23:10;100167.97;;;13.65;86.42
12203;BME280;6164;42.178;24.622;2023-04-09T08:25:36;100160.09;;;13.79;84.42
12203;BME280;6164;42.178;24.622;2023-04-09T08:28:03;100160.09;;;13.79;83.09
12203;BME280;6164;42.178;24.622;2023-04-09T08:30:30;100158.09;;;13.81;82.49
12203;BME280;6164;42.178;24.622;2023-04-09T08:32:58;100154.09;;;13.85;80.42
12203;BME280;6164;42.178;24.622;2023-04-09T08:35:24;100155.13;;;13.76;80.79
12203;BME280;6164;42.178;24.622;2023-04-09T08:37:53;100157.88;;;13.60;79.13
12203;BME280;6164;42.178;24.622;2023-04-09T08:40:20;100154.28;;;13.76;80.02
12203;BME280;6164;42.178;24.622;2023-04-09T08:42:46;100150.38;;;13.94;81.74
12203;BME280;6164;42.178;24.622;2023-04-09T08:45:18;100153.44;;;13.83;79.59
12203;BME280;6164;42.178;24.622;2023-04-09T08:47:44;100149.41;;;13.87;81.82
12203;BME280;6164;42.178;24.622;2023-04-09T08:50:13;100149.34;;;13.95;82.33
12203;BME280;6164;42.178;24.622;2023-04-09T08:52:39;100152.44;;;14.07;81.45
12203;BME280;6164;42.178;24.622;2023-04-09T08:55:08;100152.03;;;14.18;81.43
12203;BME280;6164;42.178;24.622;2023-04-09T08:57:37;100156.31;;;14.19;79.14
12203;BME280;6164;42.178;24.622;2023-04-09T09:00:03;100148.66;;;14.24;79.50
12203;BME280;6164;42.178;24.622;2023-04-09T09:02:30;100153.69;;;14.41;78.72
12203;BME280;6164;42.178;24.622;2023-04-09T09:04:57;100160.16;;;14.62;77.80
12203;BME280;6164;42.178;24.622;2023-04-09T09:07:25;100157.09;;;14.87;75.35
12203;BME280;6164;42.178;24.622;2023-04-09T09:09:54;100159.56;;;15.03;74.40
12203;BME280;6164;42.178;24.622;2023-04-09T09:12:36;100151.47;;;15.26;72.74
12203;BME280;6164;42.178;24.622;2023-04-09T09:15:03;100146.06;;;15.34;73.06
12203;BME280;6164;42.178;24.622;2023-04-09T09:17:30;100151.56;;;15.32;71.94
12203;BME280;6164;42.178;24.622;2023-04-09T09:19:57;100141.56;;;15.34;73.27
12203;BME280;6164;42.178;24.622;2023-04-09T09:22:23;100153.03;;;15.35;71.19
12203;BME280;6164;42.178;24.622;2023-04-09T09:24:50;100142.13;;;15.30;70.97
12203;BME280;6164;42.178;24.622;2023-04-09T09:27:30;100141.38;;;15.36;71.67
12203;BME280;6164;42.178;24.622;2023-04-09T09:29:59;100142.69;;;15.54;69.91
12203;BME280;6164;42.178;24.622;2023-04-09T09:32:26;100132.38;;;15.66;71.17
12203;BME280;6164;42.178;24.622;2023-04-09T09:35:00;100132.78;;;15.84;70.36
12203;BME280;6164;42.178;24.622;2023-04-09T09:37:27;100131.53;;;16.01;69.84
12203;BME280;6164;42.178;24.622;2023-04-09T09:39:53;100136.53;;;16.11;67.40
12203;BME280;6164;42.178;24.622;2023-04-09T09:42:20;100133.59;;;16.27;67.42
12203;BME280;6164;42.178;24.622;2023-04-09T09:44:47;100119.72;;;16.10;69.08
12203;BME280;6164;42.178;24.622;2023-04-09T09:47:14;100104.75;;;16.09;71.33
12203;BME280;6164;42.178;24.622;2023-04-09T09:49:41;100120.41;;;16.19;69.18
12203;BME280;6164;42.178;24.622;2023-04-09T09:52:09;100114.56;;;16.30;69.47
12203;BME280;6164;42.178;24.622;2023-04-09T09:54:37;100116.88;;;16.39;70.74
12203;BME280;6164;42.178;24.622;2023-04-09T09:57:07;100116.53;;;16.42;68.46
12203;BME280;6164;42.178;24.622;2023-04-09T09:59:36;100103.66;;;16.46;69.99
12203;BME280;6164;42.178;24.622;2023-04-09T10:02:03;100110.84;;;16.45;68.48
12203;BME280;6164;42.178;24.622;2023-04-09T10:04:33;100108.63;;;16.49;68.48
12203;BME280;6164;42.178;24.622;2023-04-09T10:07:00;100109.59;;;16.75;67.56
12203;BME280;6164;42.178;24.622;2023-04-09T10:09:29;100107.94;;;17.08;67.11
12203;BME280;6164;42.178;24.622;2023-04-09T10:11:56;100115.28;;;17.34;65.47
12203;BME280;6164;42.178;24.622;2023-04-09T10:14:23;100104.91;;;17.52;64.73
12203;BME280;6164;42.178;24.622;2023-04-09T10:16:51;100099.78;;;17.57;63.11
12203;BME280;6164;42.178;24.622;2023-04-09T10:19:17;100112.16;;;17.78;62.56
12203;BME280;6164;42.178;24.622;2023-04-09T10:21:49;100118.13;;;17.86;60.80
12203;BME280;6164;42.178;24.622;2023-04-09T10:24:17;100105.59;;;17.74;60.56
12203;BME280;6164;42.178;24.622;2023-04-09T10:26:44;100106.13;;;17.56;60.17
12203;BME280;6164;42.178;24.622;2023-04-09T10:29:11;100101.16;;;17.47;60.15
12203;BME280;6164;42.178;24.622;2023-04-09T10:31:44;100104.69;;;17.54;59.34
12203;BME280;6164;42.178;24.622;2023-04-09T10:34:10;100099.16;;;17.55;59.26
12203;BME280;6164;42.178;24.622;2023-04-09T10:36:41;100099.13;;;17.49;58.32
12203;BME280;6164;42.178;24.622;2023-04-09T10:39:11;100118.06;;;17.60;56.24
12203;BME280;6164;42.178;24.622;2023-04-09T10:41:38;100143.06;;;17.46;54.44
12203;BME280;6164;42.178;24.622;2023-04-09T10:44:05;100113.75;;;17.53;56.35
12203;BME280;6164;42.178;24.622;2023-04-09T10:46:44;100117.69;;;17.70;54.79
12203;BME280;6164;42.178;24.622;2023-04-09T10:49:11;100116.91;;;17.76;55.10
12203;BME280;6164;42.178;24.622;2023-04-09T10:51:50;100138.88;;;17.91;52.61
12203;BME280;6164;42.178;24.622;2023-04-09T10:57:10;100146.34;;;18.21;51.88
12203;BME280;6164;42.178;24.622;2023-04-09T10:59:38;100158.47;;;18.30;50.83
12203;BME280;6164;42.178;24.622;2023-04-09T11:02:06;100159.09;;;18.26;50.06
12203;BME280;6164;42.178;24.622;2023-04-09T11:04:34;100158.25;;;18.19;49.58
12203;BME280;6164;42.178;24.622;2023-04-09T11:07:03;100236.16;;;18.09;45.00
12203;BME280;6164;42.178;24.622;2023-04-09T11:09:33;100271.94;;;18.08;43.64
12203;BME280;6164;42.178;24.622;2023-04-09T11:11:59;100247.91;;;18.21;45.79
12203;BME280;6164;42.178;24.622;2023-04-09T11:14:29;100242.78;;;18.20;46.34
12203;BME280;6164;42.178;24.622;2023-04-09T11:16:55;100194.88;;;18.12;48.30
12203;BME280;6164;42.178;24.622;2023-04-09T11:19:22;100175.28;;;17.98;48.42
12203;BME280;6164;42.178;24.622;2023-04-09T11:21:48;100180.06;;;18.16;48.13
12203;BME280;6164;42.178;24.622;2023-04-09T11:24:17;100222.41;;;18.25;45.22
12203;BME280;6164;42.178;24.622;2023-04-09T11:26:44;100264.38;;;18.25;44.00
12203;BME280;6164;42.178;24.622;2023-04-09T11:29:12;100263.34;;;18.32;44.51
12203;BME280;6164;42.178;24.622;2023-04-09T11:31:42;100228.41;;;18.34;46.43
12203;BME280;6164;42.178;24.622;2023-04-09T11:34:08;100195.56;;;18.60;47.28
12203;BME280;6164;42.178;24.622;2023-04-09T11:36:36;100204.41;;;18.60;46.01
12203;BME280;6164;42.178;24.622;2023-04-09T11:39:03;100227.88;;;18.58;44.64
12203;BME280;6164;42.178;24.622;2023-04-09T11:41:34;100268.38;;;18.55;43.13
12203;BME280;6164;42.178;24.622;2023-04-09T11:44:01;100257.06;;;18.47;43.76
12203;BME280;6164;42.178;24.622;2023-04-09T11:46:28;100236.28;;;18.55;45.22
12203;BME280;6164;42.178;24.622;2023-04-09T11:48:56;100268.97;;;18.51;42.45
12203;BME280;6164;42.178;24.622;2023-04-09T11:51:22;100284.78;;;18.39;42.57
12203;BME280;6164;42.178;24.622;2023-04-09T11:53:51;100297.53;;;18.44;41.86
12203;BME280;6164;42.178;24.622;2023-04-09T11:56:17;100274.34;;;18.57;43.58
12203;BME280;6164;42.178;24.622;2023-04-09T11:58:44;100270.06;;;18.76;42.72
12203;BME280;6164;42.178;24.622;2023-04-09T12:01:12;100323.78;;;18.81;39.83
12203;BME280;6164;42.178;24.622;2023-04-09T12:03:38;100327.88;;;18.77;41.04
12203;BME280;6164;42.178;24.622;2023-04-09T12:06:06;100309.94;;;18.64;41.62
12203;BME280;6164;42.178;24.622;2023-04-09T12:08:33;100315.50;;;18.63;41.13
12203;BME280;6164;42.178;24.622;2023-04-09T12:11:07;100322.69;;;18.56;41.27
12203;BME280;6164;42.178;24.622;2023-04-09T12:13:34;100329.03;;;18.42;40.62
12203;BME280;6164;42.178;24.622;2023-04-09T12:16:01;100324.31;;;18.50;41.36
12203;BME280;6164;42.178;24.622;2023-04-09T12:18:27;100333.19;;;18.64;40.35
12203;BME280;6164;42.178;24.622;2023-04-09T12:20:54;100332.03;;;18.92;40.41
12203;BME280;6164;42.178;24.622;2023-04-09T12:23:22;100375.28;;;19.15;38.55
12203;BME280;6164;42.178;24.622;2023-04-09T12:25:48;100386.59;;;19.11;38.90
12203;BME280;6164;42.178;24.622;2023-04-09T12:28:15;100399.56;;;19.20;38.27
12203;BME280;6164;42.178;24.622;2023-04-09T12:30:42;100394.47;;;19.38;38.28
12203;BME280;6164;42.178;24.622;2023-04-09T12:33:09;100436.06;;;19.41;37.18
12203;BME280;6164;42.178;24.622;2023-04-09T12:35:35;100437.94;;;19.53;36.93
12203;BME280;6164;42.178;24.622;2023-04-09T12:38:02;100463.06;;;19.65;36.27
12203;BME280;6164;42.178;24.622;2023-04-09T12:40:31;100488.44;;;19.70;35.49
12203;BME280;6164;42.178;24.622;2023-04-09T12:42:57;100499.16;;;19.70;35.67
12203;BME280;6164;42.178;24.622;2023-04-09T12:45:24;100523.47;;;19.55;34.77
12203;BME280;6164;42.178;24.622;2023-04-09T12:47:51;100531.25;;;19.43;35.02
12203;BME280;6164;42.178;24.622;2023-04-09T12:50:18;100545.66;;;19.49;35.07
12203;BME280;6164;42.178;24.622;2023-04-09T12:52:44;100515.00;;;19.64;37.05